Time;durP1;ratioP1;P1;durP2;ratioP2;P2;SDS_P1;SDS_P2;PMS_P1;PMS_P2;Temp;Humidity;BMP_temperature;BMP_pressure;BME280_temperature;BME280_humidity;BME280_pressure;Samples;Min_cycle;Max_cycle;Signal;HPM_P1;HPM_P2
2022/09/21 00:00:29;;;;;;;;;;;;;;;10.93;100.00;100474.84;3056817;19;20235;-57
2022/09/21 00:01:31;;;;;;;;;;;;;;;10.96;100.00;100482.69;3055107;19;19970;-57
2022/09/21 00:02:36;;;;;;;;;;;;;;;10.97;100.00;100481.72;3056719;19;19918;-57
2022/09/21 00:03:40;;;;;;;;;;;;;;;10.98;100.00;100483.44;3055830;19;19941;-55
2022/09/21 00:04:44;;;;;;;;;;;;;;;10.99;100.00;100485.13;3056357;19;19914;-54
2022/09/21 00:05:46;;;;;;;;;;;;;;;11.02;100.00;100484.09;3055855;19;19918;-56
2022/09/21 00:06:50;;;;;;;;;;;;;;;10.97;100.00;100475.53;3055735;19;20343;-57
2022/09/21 00:07:52;;;;;;;;;;;;;;;11.04;100.00;100488.38;3055897;19;19918;-54
2022/09/21 00:08:57;;;;;;;;;;;;;;;11.05;100.00;100484.75;3055607;19;19922;-56
2022/09/21 00:09:59;;;;;;;;;;;;;;;11.06;100.00;100488.28;3054891;19;19982;-57
2022/09/21 00:11:04;;;;;;;;;;;;;;;11.08;100.00;100481.91;3055805;19;20223;-55
2022/09/21 00:12:10;;;;;;;;;;;;;;;11.08;100.00;100489.91;3056100;19;20298;-54
2022/09/21 00:13:12;;;;;;;;;;;;;;;11.08;100.00;100484.56;3055107;19;20015;-55
2022/09/21 00:14:18;;;;;;;;;;;;;;;11.08;100.00;100484.56;3055093;19;19915;-55
2022/09/21 00:15:20;;;;;;;;;;;;;;;11.06;100.00;100485.63;3056334;19;20003;-55
2022/09/21 00:16:24;;;;;;;;;;;;;;;11.06;100.00;100491.81;3055723;19;19984;-56
2022/09/21 00:17:27;;;;;;;;;;;;;;;11.05;100.00;100484.75;3055722;19;20367;-54
2022/09/21 00:18:32;;;;;;;;;;;;;;;11.02;100.00;100484.09;3055617;19;20551;-56
2022/09/21 00:19:36;;;;;;;;;;;;;;;11.06;100.00;100486.47;3056022;19;20298;-56
2022/09/21 00:20:40;;;;;;;;;;;;;;;11.06;100.00;100490.94;3055895;19;20609;-54
2022/09/21 00:21:44;;;;;;;;;;;;;;;11.08;100.00;100486.38;3055638;19;19919;-55
2022/09/21 00:22:46;;;;;;;;;;;;;;;11.08;100.00;100494.41;3055586;19;19939;-54
2022/09/21 00:23:51;;;;;;;;;;;;;;;11.07;100.00;100490.00;3055213;19;19931;-57
2022/09/21 00:24:53;;;;;;;;;;;;;;;11.09;100.00;100491.63;3055300;19;20081;-56
2022/09/21 00:26:14;;;;;;;;;;;;;;;11.07;100.00;100488.19;3056310;19;19930;-55
2022/09/21 00:27:16;;;;;;;;;;;;;;;11.06;100.00;100491.81;3055401;19;20018;-54
2022/09/21 00:28:20;;;;;;;;;;;;;;;11.08;100.00;100494.41;3054558;19;19993;-56
2022/09/21 00:29:22;;;;;;;;;;;;;;;11.06;100.00;100496.28;3055174;19;19989;-56
2022/09/21 00:30:27;;;;;;;;;;;;;;;11.08;100.00;100495.25;3055834;19;20032;-55
2022/09/21 00:31:30;;;;;;;;;;;;;;;11.09;100.00;100486.28;3054781;19;19915;-57
2022/09/21 00:32:35;;;;;;;;;;;;;;;11.10;100.00;100496.03;3054374;19;20418;-55
2022/09/21 00:33:37;;;;;;;;;;;;;;;11.11;100.00;100495.03;3055832;19;19939;-54
2022/09/21 00:34:41;;;;;;;;;;;;;;;11.12;100.00;100486.06;3055529;19;19925;-55
2022/09/21 00:35:43;;;;;;;;;;;;;;;11.15;100.00;100496.56;3055849;19;19944;-57
2022/09/21 00:36:48;;;;;;;;;;;;;;;11.13;100.00;100486.94;3055432;19;20338;-55
2022/09/21 00:37:50;;;;;;;;;;;;;;;11.18;100.00;100492.84;3055732;19;19927;-56
2022/09/21 00:38:55;;;;;;;;;;;;;;;11.19;100.00;100492.75;3054336;19;19926;-55
2022/09/21 00:39:57;;;;;;;;;;;;;;;11.21;100.00;100494.47;3054575;19;19951;-55
2022/09/21 00:41:01;;;;;;;;;;;;;;;11.23;100.00;100493.38;3055242;19;20334;-57
2022/09/21 00:42:09;;;;;;;;;;;;;;;11.24;100.00;100483.56;3055904;19;20605;-57
2022/09/21 00:43:14;;;;;;;;;;;;;;;11.26;100.00;100497.69;3055143;19;20381;-57
2022/09/21 00:44:23;;;;;;;;;;;;;;;11.25;100.00;100491.47;3055669;19;19986;-54
2022/09/21 00:45:27;;;;;;;;;;;;;;;11.27;100.00;100488.72;3054413;19;20489;-56
2022/09/21 00:46:30;;;;;;;;;;;;;;;11.28;100.00;100490.44;3054908;19;19919;-56
2022/09/21 00:47:34;;;;;;;;;;;;;;;11.27;100.00;100499.41;3053580;19;20322;-56
2022/09/21 00:48:36;;;;;;;;;;;;;;;11.26;100.00;100493.19;3055575;19;19966;-54
2022/09/21 00:49:40;;;;;;;;;;;;;;;11.29;100.00;100489.47;3054540;19;20107;-56
2022/09/21 00:50:52;;;;;;;;;;;;;;;11.29;100.00;100494.81;3054907;19;19922;-56
2022/09/21 00:51:57;;;;;;;;;;;;;;;11.30;100.00;100493.88;3054187;19;19919;-55
2022/09/21 00:52:59;;;;;;;;;;;;;;;11.31;100.00;100490.25;3054826;19;19927;-56
2022/09/21 00:54:05;;;;;;;;;;;;;;;11.31;100.00;100495.59;3054611;19;19923;-56
2022/09/21 00:55:13;;;;;;;;;;;;;;;11.33;100.00;100499.03;3054611;19;19922;-55
2022/09/21 00:56:19;;;;;;;;;;;;;;;11.30;100.00;100493.88;3054246;19;19919;-57
2022/09/21 00:57:21;;;;;;;;;;;;;;;11.32;100.00;100498.16;3055347;19;19919;-55
2022/09/21 00:58:29;;;;;;;;;;;;;;;11.32;100.00;100495.50;3054419;19;19918;-55
2022/09/21 00:59:31;;;;;;;;;;;;;;;11.33;100.00;100505.22;3054581;19;19978;-55
2022/09/21 01:00:36;;;;;;;;;;;;;;;11.31;100.00;100501.78;3055078;19;19922;-55
2022/09/21 01:01:38;;;;;;;;;;;;;;;11.31;100.00;100503.59;3054355;19;20027;-57
2022/09/21 01:02:43;;;;;;;;;;;;;;;11.33;100.00;100499.03;3054578;19;19976;-57
2022/09/21 01:03:45;;;;;;;;;;;;;;;11.33;100.00;100501.69;3054410;19;19929;-55
2022/09/21 01:04:50;;;;;;;;;;;;;;;11.34;100.00;100503.41;3054772;19;20453;-55
2022/09/21 01:05:51;;;;;;;;;;;;;;;11.35;100.00;100505.13;3053812;19;20422;-57
2022/09/21 01:06:56;;;;;;;;;;;;;;;11.35;100.00;100507.81;3055361;19;19998;-55
2022/09/21 01:07:59;;;;;;;;;;;;;;;11.35;100.00;100507.81;3054090;19;19935;-55
2022/09/21 01:09:03;;;;;;;;;;;;;;;11.33;100.00;100515.91;3054552;19;20572;-56
2022/09/21 01:10:08;;;;;;;;;;;;;;;11.34;100.00;100506.94;3054606;19;19931;-56
2022/09/21 01:11:24;;;;;;;;;;;;;;;11.34;100.00;100508.75;3055291;19;19926;-56
2022/09/21 01:12:32;;;;;;;;;;;;;;;11.35;100.00;100507.81;3055099;19;19926;-55
2022/09/21 01:13:40;;;;;;;;;;;;;;;11.36;100.00;100506.81;3055585;19;19930;-57
2022/09/21 01:14:48;;;;;;;;;;;;;;;11.38;100.00;100512.94;3055179;19;19915;-57
2022/09/21 01:15:53;;;;;;;;;;;;;;;11.39;100.00;100515.50;3054558;19;19971;-57
2022/09/21 01:17:04;;;;;;;;;;;;;;;11.40;100.00;100500.34;3054509;19;19919;-57
2022/09/21 01:18:22;;;;;;;;;;;;;;;11.41;100.00;100512.75;3055022;19;19930;-56
2022/09/21 01:19:36;;;;;;;;;;;;;;;11.42;100.00;100511.78;3055033;19;19939;-56
2022/09/21 01:20:52;;;;;;;;;;;;;;;11.42;100.00;100514.44;3054512;19;20684;-54
2022/09/21 01:22:16;;;;;;;;;;;;;;;11.43;100.00;100516.16;3055676;19;19926;-56
2022/09/21 01:23:27;;;;;;;;;;;;;;;11.45;100.00;100514.25;3055126;19;20005;-55
2022/09/21 01:24:33;;;;;;;;;;;;;;;11.47;100.00;100513.19;3055170;19;19919;-56
2022/09/21 01:25:34;;;;;;;;;;;;;;;11.50;100.00;100520.16;3055453;19;19995;-56
2022/09/21 01:26:40;;;;;;;;;;;;;;;11.48;100.00;100519.38;3055075;19;20547;-56
2022/09/21 01:27:48;;;;;;;;;;;;;;;11.47;100.00;100517.69;3054669;19;20302;-55
2022/09/21 01:28:53;;;;;;;;;;;;;;;11.45;100.00;100524.94;3054149;19;19950;-56
2022/09/21 01:29:57;;;;;;;;;;;;;;;11.45;100.00;100525.81;3054624;19;19919;-54
2022/09/21 01:31:04;;;;;;;;;;;;;;;11.47;100.00;100528.38;3053698;19;19986;-57
2022/09/21 01:32:11;;;;;;;;;;;;;;;11.48;100.00;100532.75;3054519;19;20373;-57
2022/09/21 01:33:15;;;;;;;;;;;;;;;11.49;100.00;100531.78;3054817;19;19995;-56
2022/09/21 01:34:23;;;;;;;;;;;;;;;11.49;100.00;100531.78;3055185;19;19944;-57
2022/09/21 01:35:32;;;;;;;;;;;;;;;11.50;100.00;100528.16;3054073;19;20293;-56
2022/09/21 01:36:34;;;;;;;;;;;;;;;11.51;100.00;100529.88;3054207;19;19930;-55
2022/09/21 01:37:39;;;;;;;;;;;;;;;11.49;100.00;100531.78;3054188;19;19922;-55
2022/09/21 01:38:42;;;;;;;;;;;;;;;11.51;100.00;100535.22;3054657;19;19922;-54
2022/09/21 01:39:47;;;;;;;;;;;;;;;11.51;100.00;100540.56;3053236;19;19931;-55
2022/09/21 01:40:56;;;;;;;;;;;;;;;11.52;100.00;100531.59;3054410;19;19919;-56
2022/09/21 01:41:57;;;;;;;;;;;;;;;11.54;100.00;100543.91;3053983;19;20350;-57
2022/09/21 01:43:02;;;;;;;;;;;;;;;11.53;100.00;100538.66;3054215;19;19927;-55
2022/09/21 01:44:14;;;;;;;;;;;;;;;11.53;100.00;100531.50;3053804;19;19938;-57
2022/09/21 01:45:19;;;;;;;;;;;;;;;11.53;100.00;100534.19;3054128;19;19927;-55
2022/09/21 01:46:22;;;;;;;;;;;;;;;11.45;100.00;100525.81;3053628;19;19970;-57
2022/09/21 01:47:26;;;;;;;;;;;;;;;11.51;100.00;100543.25;3054204;19;19968;-56
2022/09/21 01:48:30;;;;;;;;;;;;;;;11.52;100.00;100544.97;3053893;19;20299;-56
2022/09/21 01:49:36;;;;;;;;;;;;;;;11.48;100.00;100546.09;3054121;19;19927;-55
2022/09/21 01:50:44;;;;;;;;;;;;;;;11.49;100.00;100551.38;3054189;19;19927;-56
2022/09/21 01:51:57;;;;;;;;;;;;;;;11.50;100.00;100544.19;3053761;19;20029;-55
2022/09/21 01:53:04;;;;;;;;;;;;;;;11.50;100.00;100544.19;3054627;19;19929;-57
2022/09/21 01:54:13;;;;;;;;;;;;;;;11.47;100.00;100547.91;3053945;19;19923;-56
2022/09/21 01:55:16;;;;;;;;;;;;;;;11.46;100.00;100553.41;3054293;19;19970;-56
2022/09/21 01:56:23;;;;;;;;;;;;;;;11.44;100.00;100547.28;3053438;19;19937;-55
2022/09/21 01:57:40;;;;;;;;;;;;;;;11.44;100.00;100544.63;3054355;19;19918;-57
2022/09/21 01:58:44;;;;;;;;;;;;;;;11.41;100.00;100552.81;3054072;19;19918;-55
2022/09/21 01:59:56;;;;;;;;;;;;;;;11.42;100.00;100552.72;3054214;19;19919;-56
2022/09/21 02:00:58;;;;;;;;;;;;;;;11.38;100.00;100547.66;3054850;19;20444;-54
2022/09/21 02:02:05;;;;;;;;;;;;;;;11.38;100.00;100550.34;3054465;19;19925;-54
2022/09/21 02:03:23;;;;;;;;;;;;;;;11.39;100.00;100552.06;3054394;19;19919;-55
2022/09/21 02:04:25;;;;;;;;;;;;;;;11.39;100.00;100552.06;3054909;19;19936;-57
2022/09/21 02:05:30;;;;;;;;;;;;;;;11.38;100.00;100553.00;3057353;19;19926;-55
2022/09/21 02:06:31;;;;;;;;;;;;;;;11.37;100.00;100554.81;3057136;19;19940;-57
2022/09/21 02:07:36;;;;;;;;;;;;;;;11.34;100.00;100551.50;3056825;19;19918;-55
2022/09/21 02:08:38;;;;;;;;;;;;;;;11.32;100.00;100553.41;3055614;19;19926;-57
2022/09/21 02:09:42;;;;;;;;;;;;;;;11.33;100.00;100561.34;3056933;19;20437;-57
2022/09/21 02:10:46;;;;;;;;;;;;;;;11.33;100.00;100555.13;3056377;19;19919;-55
2022/09/21 02:11:51;;;;;;;;;;;;;;;11.30;100.00;100558.00;3056942;19;19915;-57
2022/09/21 02:12:53;;;;;;;;;;;;;;;11.31;100.00;100557.91;3056705;19;19923;-55
2022/09/21 02:13:58;;;;;;;;;;;;;;;11.31;100.00;100551.69;3058021;19;20409;-57
2022/09/21 02:15:00;;;;;;;;;;;;;;;11.34;100.00;100559.53;3057604;19;19919;-55
2022/09/21 02:16:09;;;;;;;;;;;;;;;11.35;100.00;100558.56;3057010;19;19923;-56
2022/09/21 02:17:14;;;;;;;;;;;;;;;11.35;100.00;100561.25;3056430;19;20007;-57
2022/09/21 02:18:39;;;;;;;;;;;;;;;11.37;100.00;100551.28;3056970;19;20465;-55
2022/09/21 02:19:45;;;;;;;;;;;;;;;11.38;100.00;100561.88;3057050;19;19970;-56
2022/09/21 02:20:51;;;;;;;;;;;;;;;11.38;100.00;100555.69;3056767;19;19926;-56
2022/09/21 02:21:53;;;;;;;;;;;;;;;11.34;100.00;100567.53;3056828;19;19939;-55
2022/09/21 02:22:57;;;;;;;;;;;;;;;11.33;100.00;100557.81;3056774;19;19975;-56
2022/09/21 02:24:02;;;;;;;;;;;;;;;11.34;100.00;100556.84;3058025;19;19938;-54
2022/09/21 02:25:08;;;;;;;;;;;;;;;11.35;100.00;100553.22;3057507;19;19919;-56
2022/09/21 02:26:14;;;;;;;;;;;;;;;11.32;100.00;100548.94;3056883;19;19981;-55
2022/09/21 02:27:21;;;;;;;;;;;;;;;11.34;100.00;100551.50;3056692;19;20012;-55
2022/09/21 02:28:26;;;;;;;;;;;;;;;11.34;100.00;100555.03;3057100;19;19942;-57
2022/09/21 02:29:33;;;;;;;;;;;;;;;11.35;100.00;100561.25;3057335;19;19939;-56
2022/09/21 02:30:35;;;;;;;;;;;;;;;11.36;100.00;100554.91;3054004;19;20365;-56
2022/09/21 02:31:42;;;;;;;;;;;;;;;11.34;100.00;100554.19;3052962;19;19936;-57
2022/09/21 02:33:03;;;;;;;;;;;;;;;11.35;100.00;100563.91;3057150;19;19947;-57
2022/09/21 02:34:12;;;;;;;;;;;;;;;11.36;100.00;100562.94;3057322;19;19935;-55
2022/09/21 02:35:18;;;;;;;;;;;;;;;11.35;100.00;100566.59;3056523;19;19943;-56
2022/09/21 02:36:29;;;;;;;;;;;;;;;11.33;100.00;100557.81;3056922;19;20058;-55
2022/09/21 02:37:36;;;;;;;;;;;;;;;11.30;100.00;100568.69;3057226;19;20537;-55
2022/09/21 02:38:46;;;;;;;;;;;;;;;11.31;100.00;100559.72;3057561;19;19946;-57
2022/09/21 02:39:49;;;;;;;;;;;;;;;11.27;100.00;100563.50;3055767;19;19946;-55
2022/09/21 02:40:54;;;;;;;;;;;;;;;11.29;100.00;100562.47;3056671;19;20184;-55
2022/09/21 02:42:12;;;;;;;;;;;;;;;11.34;100.00;100565.72;3057110;19;19919;-55
2022/09/21 02:43:21;;;;;;;;;;;;;;;11.33;100.00;100569.34;3057766;19;19915;-58
2022/09/21 02:44:24;;;;;;;;;;;;;;;11.31;100.00;100570.41;3056001;19;19918;-55
2022/09/21 02:45:30;;;;;;;;;;;;;;;11.26;100.00;100569.81;3056546;19;19919;-55
2022/09/21 02:46:52;;;;;;;;;;;;;;;11.31;100.00;100567.72;3055989;19;20287;-56
2022/09/21 02:48:05;;;;;;;;;;;;;;;11.32;100.00;100570.31;3056741;19;19922;-56
2022/09/21 02:49:08;;;;;;;;;;;;;;;11.32;100.00;100580.13;3055401;19;20258;-55
2022/09/21 02:50:14;;;;;;;;;;;;;;;11.31;100.00;100567.72;3055962;19;19982;-56
2022/09/21 02:51:17;;;;;;;;;;;;;;;11.27;100.00;100568.88;3056521;19;19967;-54
2022/09/21 02:52:21;;;;;;;;;;;;;;;11.34;100.00;100567.53;3056226;19;20166;-55
2022/09/21 02:53:26;;;;;;;;;;;;;;;11.35;100.00;100566.59;3056608;19;19926;-55
2022/09/21 02:54:31;;;;;;;;;;;;;;;11.31;100.00;100567.72;3056280;19;19923;-55
2022/09/21 02:55:33;;;;;;;;;;;;;;;11.35;100.00;100569.25;3056408;19;19927;-56
2022/09/21 02:56:37;;;;;;;;;;;;;;;11.36;100.00;100573.63;3055938;19;20717;-56
2022/09/21 02:57:39;;;;;;;;;;;;;;;11.39;100.00;100576.09;3056569;19;19922;-57
2022/09/21 02:58:48;;;;;;;;;;;;;;;11.38;100.00;100561.03;3056133;19;20312;-57
2022/09/21 02:59:50;;;;;;;;;;;;;;;11.41;100.00;100572.38;3056576;19;20612;-56
2022/09/21 03:00:56;;;;;;;;;;;;;;;11.43;100.00;100569.63;3056494;19;19950;-56
2022/09/21 03:01:58;;;;;;;;;;;;;;;11.45;100.00;100573.06;3056418;19;19915;-55
2022/09/21 03:03:03;;;;;;;;;;;;;;;11.46;100.00;100570.28;3055975;19;19919;-56
2022/09/21 03:04:05;;;;;;;;;;;;;;;11.43;100.00;100572.28;3056701;19;20448;-56
2022/09/21 03:05:11;;;;;;;;;;;;;;;11.45;100.00;100575.72;3056181;19;19922;-56
2022/09/21 03:06:13;;;;;;;;;;;;;;;11.44;100.00;100571.34;3056911;19;20023;-55
2022/09/21 03:07:18;;;;;;;;;;;;;;;11.42;100.00;100567.91;3056410;19;19918;-55
2022/09/21 03:08:20;;;;;;;;;;;;;;;11.44;100.00;100569.53;3057244;19;19915;-54
2022/09/21 03:09:24;;;;;;;;;;;;;;;11.46;100.00;100566.75;3056019;19;20338;-56
2022/09/21 03:10:26;;;;;;;;;;;;;;;11.45;100.00;100573.91;3057340;19;20356;-54
2022/09/21 03:11:32;;;;;;;;;;;;;;;11.49;100.00;100574.56;3056335;19;19929;-54
2022/09/21 03:12:34;;;;;;;;;;;;;;;11.48;100.00;100567.50;3057241;19;19947;-55
2022/09/21 03:15:01;;;;;;;;;;;;;;;11.49;100.00;100569.22;3051402;19;20315;-55
2022/09/21 03:16:04;;;;;;;;;;;;;;;11.44;100.00;100572.19;3054452;19;20015;-55
2022/09/21 03:17:08;;;;;;;;;;;;;;;11.43;100.00;100582.97;3055456;19;19922;-54
2022/09/21 03:18:10;;;;;;;;;;;;;;;11.45;100.00;100567.72;3056077;19;19982;-57
2022/09/21 03:19:15;;;;;;;;;;;;;;;11.45;100.00;100570.38;3056495;19;19922;-55
2022/09/21 03:20:17;;;;;;;;;;;;;;;11.46;100.00;100559.59;3056899;19;19982;-56
2022/09/21 03:21:21;;;;;;;;;;;;;;;11.48;100.00;100572.84;3056193;19;19915;-57
2022/09/21 03:22:23;;;;;;;;;;;;;;;11.47;100.00;100568.47;3056767;19;19919;-56
2022/09/21 03:23:28;;;;;;;;;;;;;;;11.44;100.00;100560.66;3056385;19;20801;-54
2022/09/21 03:25:51;;;;;;;;;;;;;;;11.54;100.00;100575.13;3055993;19;20488;-56
2022/09/21 03:26:52;;;;;;;;;;;;;;;11.55;100.00;100571.50;3056316;19;19918;-54
2022/09/21 03:27:57;;;;;;;;;;;;;;;11.57;100.00;100579.44;3056054;19;19936;-56
2022/09/21 03:29:00;;;;;;;;;;;;;;;11.56;100.00;100578.56;3056643;19;19938;-54
2022/09/21 03:30:04;;;;;;;;;;;;;;;11.57;100.00;100582.97;3055723;19;20337;-56
2022/09/21 03:31:06;;;;;;;;;;;;;;;11.57;100.00;100582.09;3056278;19;19926;-56
2022/09/21 03:32:10;;;;;;;;;;;;;;;11.58;100.00;100584.69;3055882;19;19942;-56
2022/09/21 03:33:12;;;;;;;;;;;;;;;11.59;100.00;100581.06;3056519;19;19974;-55
2022/09/21 03:34:17;;;;;;;;;;;;;;;11.59;100.00;100578.38;3056124;19;20344;-57
2022/09/21 03:35:19;;;;;;;;;;;;;;;11.62;100.00;100591.53;3056442;19;20589;-57
2022/09/21 03:36:23;;;;;;;;;;;;;;;11.63;100.00;100581.69;3055592;19;20337;-57
2022/09/21 03:37:25;;;;;;;;;;;;;;;11.64;100.00;100584.28;3056636;19;20035;-55
2022/09/21 03:38:30;;;;;;;;;;;;;;;11.62;100.00;100588.00;3056138;19;19921;-57
2022/09/21 03:39:31;;;;;;;;;;;;;;;11.63;100.00;100582.56;3056449;19;19923;-56
2022/09/21 03:40:37;;;;;;;;;;;;;;;11.68;100.00;100582.25;3056076;19;19930;-55
2022/09/21 03:41:38;;;;;;;;;;;;;;;11.69;100.00;100587.50;3056106;19;19990;-56
2022/09/21 03:42:43;;;;;;;;;;;;;;;11.69;100.00;100590.19;3055673;19;20618;-55
2022/09/21 03:43:45;;;;;;;;;;;;;;;11.72;100.00;100583.75;3056573;19;19923;-56
2022/09/21 03:44:49;;;;;;;;;;;;;;;11.72;100.00;100587.28;3055794;19;20314;-54
2022/09/21 03:45:54;;;;;;;;;;;;;;;11.65;100.00;100577.09;3055731;19;19927;-55
2022/09/21 03:46:57;;;;;;;;;;;;;;;11.68;100.00;100596.50;3056093;19;20002;-57
2022/09/21 03:48:01;;;;;;;;;;;;;;;11.70;100.00;100594.59;3055923;19;19945;-55
2022/09/21 03:49:03;;;;;;;;;;;;;;;11.72;100.00;100597.13;3054393;19;20361;-57
2022/09/21 03:50:08;;;;;;;;;;;;;;;11.72;100.00;100598.00;3055345;19;19934;-54
2022/09/21 03:51:11;;;;;;;;;;;;;;;11.69;100.00;100594.69;3055810;19;19930;-57
2022/09/21 03:52:16;;;;;;;;;;;;;;;11.71;100.00;100590.91;3054987;19;19915;-57
2022/09/21 03:53:17;;;;;;;;;;;;;;;11.72;100.00;100594.44;3056117;19;19926;-56
2022/09/21 03:54:22;;;;;;;;;;;;;;;11.73;100.00;100598.84;3056390;19;19927;-55
2022/09/21 03:55:24;;;;;;;;;;;;;;;11.74;100.00;100601.44;3056348;19;19970;-57
2022/09/21 03:56:28;;;;;;;;;;;;;;;11.75;100.00;100597.84;3054895;19;19927;-57
2022/09/21 03:57:30;;;;;;;;;;;;;;;11.77;100.00;100598.59;3055311;19;20471;-54
2022/09/21 03:58:35;;;;;;;;;;;;;;;11.77;100.00;100609.28;3055541;19;20445;-53
2022/09/21 03:59:39;;;;;;;;;;;;;;;11.76;100.00;100607.56;3056327;19;20028;-55
2022/09/21 04:00:41;;;;;;;;;;;;;;;11.77;100.00;100603.94;3056162;19;19915;-55
2022/09/21 04:01:46;;;;;;;;;;;;;;;11.76;100.00;100602.22;3055197;19;19926;-56
2022/09/21 04:02:48;;;;;;;;;;;;;;;11.75;100.00;100608.53;3055655;19;19996;-56
2022/09/21 04:03:52;;;;;;;;;;;;;;;11.75;100.00;100608.53;3055774;19;20354;-54
2022/09/21 04:04:54;;;;;;;;;;;;;;;11.79;100.00;100614.53;3056146;19;19925;-56
2022/09/21 04:05:58;;;;;;;;;;;;;;;11.78;100.00;100613.69;3055618;19;19925;-54
2022/09/21 04:07:00;;;;;;;;;;;;;;;11.81;100.00;100612.63;3056410;19;19926;-55
2022/09/21 04:08:05;;;;;;;;;;;;;;;11.79;100.00;100615.41;3055583;19;20263;-55
2022/09/21 04:09:07;;;;;;;;;;;;;;;11.80;100.00;100611.78;3055786;19;19947;-56
2022/09/21 04:10:13;;;;;;;;;;;;;;;11.81;100.00;100608.16;3054720;19;19931;-55
2022/09/21 04:11:16;;;;;;;;;;;;;;;11.77;100.00;100601.28;3055100;19;19994;-54
2022/09/21 04:12:24;;;;;;;;;;;;;;;11.83;100.00;100611.56;3055018;19;19931;-55
2022/09/21 04:13:26;;;;;;;;;;;;;;;11.84;100.00;100613.28;3053803;19;20319;-56
2022/09/21 04:14:30;;;;;;;;;;;;;;;11.84;100.00;100607.91;3053586;19;19929;-55
2022/09/21 04:15:32;;;;;;;;;;;;;;;11.83;100.00;100616.06;3055882;19;20337;-56
2022/09/21 04:16:36;;;;;;;;;;;;;;;11.83;100.00;100613.41;3055780;19;19919;-55
2022/09/21 04:17:38;;;;;;;;;;;;;;;11.86;100.00;100613.19;3055341;19;19926;-56
2022/09/21 04:18:43;;;;;;;;;;;;;;;11.87;100.00;100615.75;3055116;19;19986;-57
2022/09/21 04:19:47;;;;;;;;;;;;;;;11.84;100.00;100610.59;3054827;19;20561;-53
2022/09/21 04:20:49;;;;;;;;;;;;;;;11.87;100.00;100615.75;3053751;19;19946;-54
2022/09/21 04:21:55;;;;;;;;;;;;;;;11.88;100.00;100614.81;3055689;19;19919;-54
2022/09/21 04:22:57;;;;;;;;;;;;;;;11.90;100.00;100623.59;3055041;19;19914;-56
2022/09/21 04:24:02;;;;;;;;;;;;;;;11.89;100.00;100621.88;3054355;19;20002;-56
2022/09/21 04:25:04;;;;;;;;;;;;;;;11.93;100.00;100621.69;3055110;19;19922;-56
2022/09/21 04:26:08;;;;;;;;;;;;;;;11.93;100.00;100621.69;3054514;19;20306;-54
2022/09/21 04:27:11;;;;;;;;;;;;;;;11.93;100.00;100625.22;3053577;19;19926;-56
2022/09/21 04:28:15;;;;;;;;;;;;;;;11.95;100.00;100630.47;3054630;19;20334;-53
2022/09/21 04:29:17;;;;;;;;;;;;;;;11.96;100.00;100626.81;3055060;19;20257;-56
2022/09/21 04:30:21;;;;;;;;;;;;;;;11.93;100.00;100629.69;3054141;19;20859;-55
2022/09/21 04:31:23;;;;;;;;;;;;;;;11.92;100.00;100630.66;3055094;19;19940;-54
2022/09/21 04:32:29;;;;;;;;;;;;;;;11.93;100.00;100627.03;3054530;19;20701;-57
2022/09/21 04:33:30;;;;;;;;;;;;;;;11.93;100.00;100627.88;3055285;19;19915;-56
2022/09/21 04:34:36;;;;;;;;;;;;;;;11.95;100.00;100635.81;3054411;19;19927;-56
2022/09/21 04:35:38;;;;;;;;;;;;;;;11.94;100.00;100634.94;3055050;19;19926;-57
2022/09/21 04:36:42;;;;;;;;;;;;;;;11.93;100.00;100637.72;3054523;19;19935;-57
2022/09/21 04:37:46;;;;;;;;;;;;;;;11.93;100.00;100637.72;3055591;19;19923;-56
2022/09/21 04:38:49;;;;;;;;;;;;;;;11.93;100.00;100638.59;3055715;19;19915;-54
2022/09/21 04:39:53;;;;;;;;;;;;;;;11.96;100.00;100642.84;3054266;19;19974;-56
2022/09/21 04:40:55;;;;;;;;;;;;;;;11.96;100.00;100637.50;3054796;19;19976;-56
2022/09/21 04:42:00;;;;;;;;;;;;;;;12.00;100.00;100641.69;3055084;19;19951;-55
2022/09/21 04:43:02;;;;;;;;;;;;;;;12.00;100.00;100633.69;3055180;19;19918;-56
2022/09/21 04:44:06;;;;;;;;;;;;;;;11.98;100.00;100641.81;3054704;19;20326;-55
2022/09/21 04:45:08;;;;;;;;;;;;;;;12.00;100.00;100634.53;3055536;19;19924;-56
2022/09/21 04:46:14;;;;;;;;;;;;;;;12.01;100.00;100640.75;3055288;19;19923;-56
2022/09/21 04:47:16;;;;;;;;;;;;;;;12.02;100.00;100642.47;3054287;19;20204;-56
2022/09/21 04:48:20;;;;;;;;;;;;;;;12.01;100.00;100651.44;3054555;19;19963;-55
2022/09/21 04:49:22;;;;;;;;;;;;;;;12.03;100.00;100650.41;3055363;19;19994;-56
2022/09/21 04:50:26;;;;;;;;;;;;;;;12.01;100.00;100648.78;3055065;19;19943;-54
2022/09/21 04:51:36;;;;;;;;;;;;;;;12.01;100.00;100648.78;3054143;19;19926;-56
2022/09/21 04:52:41;;;;;;;;;;;;;;;12.04;100.00;100640.56;3054511;19;19918;-55
2022/09/21 04:53:43;;;;;;;;;;;;;;;12.03;100.00;100644.19;3054235;19;20007;-56
2022/09/21 04:54:48;;;;;;;;;;;;;;;12.05;100.00;100650.31;3053985;19;20006;-56
2022/09/21 04:55:50;;;;;;;;;;;;;;;12.04;100.00;100656.59;3055377;19;19956;-57
2022/09/21 04:56:55;;;;;;;;;;;;;;;12.07;100.00;100651.06;3054893;19;19936;-55
2022/09/21 04:57:56;;;;;;;;;;;;;;;12.02;100.00;100653.16;3055146;19;19914;-56
2022/09/21 04:59:01;;;;;;;;;;;;;;;12.04;100.00;100656.59;3055014;19;20003;-56
2022/09/21 05:00:04;;;;;;;;;;;;;;;12.06;100.00;100654.69;3055399;19;19947;-56
2022/09/21 05:01:08;;;;;;;;;;;;;;;12.08;100.00;100663.44;3053960;19;20307;-56
2022/09/21 05:02:13;;;;;;;;;;;;;;;12.08;100.00;100663.44;3054325;19;19923;-54
2022/09/21 05:03:15;;;;;;;;;;;;;;;12.10;100.00;100657.06;3055051;19;19927;-55
2022/09/21 05:04:19;;;;;;;;;;;;;;;12.08;100.00;100663.44;3054335;19;19919;-56
2022/09/21 05:05:24;;;;;;;;;;;;;;;12.11;100.00;100663.25;3055518;19;19919;-56
2022/09/21 05:06:25;;;;;;;;;;;;;;;12.14;100.00;100657.72;3055268;19;20369;-54
2022/09/21 05:07:30;;;;;;;;;;;;;;;12.14;100.00;100669.28;3054924;19;19986;-54
2022/09/21 05:10:04;;;;;;;;;;;;;;;12.20;100.00;100676.03;3055020;19;20629;-56
2022/09/21 05:11:08;;;;;;;;;;;;;;;12.15;100.00;100672.81;3054473;19;19931;-54
2022/09/21 05:12:10;;;;;;;;;;;;;;;12.19;100.00;100677.00;3055176;19;19918;-54
2022/09/21 05:13:15;;;;;;;;;;;;;;;12.22;100.00;100666.09;3054614;19;19922;-56
2022/09/21 05:14:23;;;;;;;;;;;;;;;12.23;100.00;100668.66;3054395;19;19923;-55
2022/09/21 05:15:24;;;;;;;;;;;;;;;12.23;100.00;100665.13;3054776;19;19963;-56
2022/09/21 05:16:29;;;;;;;;;;;;;;;12.26;100.00;100670.28;3053745;19;20540;-56
2022/09/21 05:17:33;;;;;;;;;;;;;;;12.23;100.00;100670.50;3054995;19;19930;-54
2022/09/21 05:18:35;;;;;;;;;;;;;;;12.30;100.00;100674.50;3050058;19;19919;-54
2022/09/21 05:19:40;;;;;;;;;;;;;;;12.34;100.00;100680.47;3054517;19;19923;-54
2022/09/21 05:20:41;;;;;;;;;;;;;;;12.36;100.00;100679.44;3055197;19;19974;-56
2022/09/21 05:21:46;;;;;;;;;;;;;;;12.37;100.00;100680.28;3054399;19;19935;-55
2022/09/21 05:22:50;;;;;;;;;;;;;;;12.39;100.00;100681.91;3054671;19;20500;-57
2022/09/21 05:23:53;;;;;;;;;;;;;;;12.42;100.00;100695.09;3055302;19;20306;-54
2022/09/21 05:24:57;;;;;;;;;;;;;;;12.44;100.00;100687.78;3054920;19;19918;-57
2022/09/21 05:25:59;;;;;;;;;;;;;;;12.42;100.00;100676.38;3055262;19;20411;-58
2022/09/21 05:27:03;;;;;;;;;;;;;;;12.51;100.00;100685.59;3054435;19;19952;-58
2022/09/21 05:28:06;;;;;;;;;;;;;;;12.54;100.00;100691.59;3054484;19;19918;-57
2022/09/21 05:29:10;;;;;;;;;;;;;;;12.56;100.00;100692.34;3052958;19;19927;-60
2022/09/21 05:30:12;;;;;;;;;;;;;;;12.60;100.00;100690.31;3055542;19;19928;-57
2022/09/21 05:31:18;;;;;;;;;;;;;;;12.60;100.00;100707.25;3054667;19;19919;-58
2022/09/21 05:32:25;;;;;;;;;;;;;;;12.61;100.00;100700.06;3054956;19;20493;-58
2022/09/21 05:33:28;;;;;;;;;;;;;;;12.67;100.00;100713.06;3053009;19;19918;-59